Time;durP1;ratioP1;P1;durP2;ratioP2;P2;SDS_P1;SDS_P2;PMS_P1;PMS_P2;Temp;Humidity;BMP_temperature;BMP_pressure;BME280_temperature;BME280_humidity;BME280_pressure;Samples;Min_cycle;Max_cycle;Signal;HPM_P1;HPM_P2
2023/01/07 13:32:37;;;;;;;16.45;10.93;;;;;;;;;;4933775;29;20048;-90
2023/01/07 13:35:02;;;;;;;18.00;11.23;;;;;;;;;;4935572;29;20550;-93
2023/01/07 13:37:45;;;;;;;18.70;12.73;;;;;;;;;;4935823;29;20031;-90
2023/01/07 13:40:20;;;;;;;21.95;12.82;;;;;;;;;;4935545;29;20482;-91
2023/01/07 13:42:58;;;;;;;19.27;12.27;;;;;;;;;;4936578;29;20035;-90
2023/01/07 13:45:32;;;;;;;19.95;12.52;;;;;;;;;;4936251;29;20031;-89
2023/01/07 13:48:01;;;;;;;19.33;12.88;;;;;;;;;;4933769;29;20032;-90
2023/01/07 13:50:38;;;;;;;19.77;12.55;;;;;;;;;;4922835;29;20024;-87
2023/01/07 13:53:15;;;;;;;25.15;14.50;;;;;;;;;;4935927;29;20032;-88
2023/01/07 13:55:46;;;;;;;21.77;13.18;;;;;;;;;;4935159;29;20024;-87
2023/01/07 13:58:41;;;;;;;19.23;11.90;;;;;;;;;;4932268;29;20170;-93
2023/01/07 14:01:14;;;;;;;19.58;12.35;;;;;;;;;;4935053;29;20031;-89
2023/01/07 14:03:46;;;;;;;20.58;12.93;;;;;;;;;;4933717;29;20094;-93
2023/01/07 14:06:20;;;;;;;21.23;13.40;;;;;;;;;;4927348;29;20020;-91
2023/01/07 14:09:12;;;;;;;34.40;21.23;;;;;;;;;;4936184;29;20036;-91
2023/01/07 14:11:46;;;;;;;23.25;13.90;;;;;;;;;;4934798;29;20024;-90
2023/01/07 14:14:34;;;;;;;30.38;17.80;;;;;;;;;;4934711;29;20039;-88
2023/01/07 14:17:06;;;;;;;27.05;17.88;;;;;;;;;;4934294;29;20426;-89
2023/01/07 14:19:46;;;;;;;28.45;17.35;;;;;;;;;;4935272;29;20028;-88
2023/01/07 14:22:42;;;;;;;24.92;16.25;;;;;;;;;;4936045;29;20031;-89
2023/01/07 14:25:32;;;;;;;24.23;14.48;;;;;;;;;;4928250;29;20071;-89
2023/01/07 14:28:16;;;;;;;25.05;13.20;;;;;;;;;;4931847;29;20089;-91
2023/01/07 14:30:47;;;;;;;23.58;13.82;;;;;;;;;;4934859;29;20386;-93
2023/01/07 14:33:57;;;;;;;19.40;12.45;;;;;;;;;;4934627;29;20052;-91
2023/01/07 14:36:23;;;;;;;18.45;11.70;;;;;;;;;;4900230;29;20035;-90
2023/01/07 14:38:56;;;;;;;22.52;12.60;;;;;;;;;;4937739;29;20028;-86
2023/01/07 14:41:23;;;;;;;22.80;13.98;;;;;;;;;;4934880;29;20035;-92
2023/01/07 14:44:00;;;;;;;22.90;13.07;;;;;;;;;;4935716;29;20031;-95
2023/01/07 14:46:26;;;;;;;23.27;13.30;;;;;;;;;;4938419;29;20106;-92
2023/01/07 14:49:00;;;;;;;22.88;13.40;;;;;;;;;;4939587;29;20052;-90
2023/01/07 14:51:43;;;;;;;22.70;13.52;;;;;;;;;;4937856;29;20024;-92
2023/01/07 14:54:46;;;;;;;21.50;13.95;;;;;;;;;;4938205;29;20082;-93
2023/01/07 14:57:15;;;;;;;23.50;13.82;;;;;;;;;;4929695;29;20031;-91
2023/01/07 15:00:17;;;;;;;20.70;13.65;;;;;;;;;;4938403;29;20471;-94
2023/01/07 15:03:02;;;;;;;25.77;14.18;;;;;;;;;;4939373;29;20064;-94
2023/01/07 15:05:48;;;;;;;24.58;14.60;;;;;;;;;;4926451;29;20091;-91
2023/01/07 15:16:47;;;;;;;22.75;12.75;;;;;;;;;;4939320;29;20058;-93
2023/01/07 15:19:12;;;;;;;22.85;15.02;;;;;;;;;;4929352;29;20028;-91
2023/01/07 15:21:41;;;;;;;21.35;13.65;;;;;;;;;;4933016;29;20038;-93
2023/01/07 15:24:13;;;;;;;24.92;14.77;;;;;;;;;;4939062;29;20024;-92
2023/01/07 15:27:00;;;;;;;23.48;13.55;;;;;;;;;;4940040;29;20031;-91
2023/01/07 15:29:44;;;;;;;23.35;13.85;;;;;;;;;;4939328;29;20031;-92
2023/01/07 15:32:41;;;;;;;23.48;14.30;;;;;;;;;;4938610;29;20075;-93
2023/01/07 15:35:27;;;;;;;23.70;13.23;;;;;;;;;;4938665;29;20071;-87
2023/01/07 15:37:53;;;;;;;26.15;14.98;;;;;;;;;;4927678;29;20027;-93
2023/01/07 15:40:22;;;;;;;28.27;14.35;;;;;;;;;;4937441;29;20466;-95
2023/01/07 15:42:51;;;;;;;24.15;14.30;;;;;;;;;;4938771;29;20028;-94
2023/01/07 15:45:19;;;;;;;24.70;14.43;;;;;;;;;;4938419;29;20027;-93
2023/01/07 15:47:45;;;;;;;27.95;16.15;;;;;;;;;;4940784;29;20036;-87
2023/01/07 15:50:30;;;;;;;26.60;15.80;;;;;;;;;;4938957;29;20027;-93
2023/01/07 15:53:17;;;;;;;25.20;13.95;;;;;;;;;;4940603;29;20060;-91
2023/01/07 15:55:54;;;;;;;28.05;14.35;;;;;;;;;;4937193;29;20067;-91
2023/01/07 15:58:33;;;;;;;21.15;13.25;;;;;;;;;;4930218;29;20028;-93
2023/01/07 16:01:00;;;;;;;22.23;13.00;;;;;;;;;;4936905;29;20016;-94
2023/01/07 16:03:26;;;;;;;24.80;13.40;;;;;;;;;;4937967;29;20106;-90
2023/01/07 16:05:52;;;;;;;23.70;14.18;;;;;;;;;;4937803;29;20020;-92
2023/01/07 16:08:29;;;;;;;23.27;13.68;;;;;;;;;;4935513;29;20053;-92
2023/01/07 16:11:22;;;;;;;27.52;14.73;;;;;;;;;;4925695;29;20574;-89
2023/01/07 16:13:59;;;;;;;32.58;17.30;;;;;;;;;;4936330;29;20055;-93
2023/01/07 16:16:26;;;;;;;70.72;34.97;;;;;;;;;;4936918;29;20038;-93
2023/01/07 16:19:01;;;;;;;68.07;32.85;;;;;;;;;;4939119;29;20115;-90
2023/01/07 16:21:38;;;;;;;46.80;24.55;;;;;;;;;;4939664;29;20092;-89
2023/01/07 16:24:04;;;;;;;38.83;20.30;;;;;;;;;;4945770;29;20046;-93
2023/01/07 16:26:44;;;;;;;32.67;17.65;;;;;;;;;;4934437;29;20063;-90
2023/01/07 16:29:32;;;;;;;28.13;17.15;;;;;;;;;;4939064;29;20091;-89
2023/01/07 16:32:04;;;;;;;21.48;13.55;;;;;;;;;;4937865;29;20044;-94
2023/01/07 16:34:29;;;;;;;23.60;13.23;;;;;;;;;;4934357;29;20090;-93
2023/01/07 16:36:57;;;;;;;27.52;15.30;;;;;;;;;;4932188;29;20470;-91
2023/01/07 16:39:30;;;;;;;24.25;14.20;;;;;;;;;;4937777;29;20031;-85
2023/01/07 16:42:41;;;;;;;27.83;15.73;;;;;;;;;;4937081;29;20019;-88
2023/01/07 16:44:45;;;;;;;27.77;15.63;;;;;;;;;;4926648;29;20094;-86
2023/01/07 16:47:21;;;;;;;26.77;15.70;;;;;;;;;;4936928;29;20019;-86
2023/01/07 16:49:55;;;;;;;28.05;15.80;;;;;;;;;;4936669;29;20034;-91
2023/01/07 16:52:25;;;;;;;36.53;21.00;;;;;;;;;;4937981;29;20024;-87
2023/01/07 16:54:50;;;;;;;;;;;;;;;;;;4936820;29;20043;-93
2023/01/07 16:57:44;;;;;;;26.80;16.42;;;;;;;;;;4937344;29;20317;-88
2023/01/07 17:00:18;;;;;;;26.05;16.30;;;;;;;;;;4936691;29;20023;-84
2023/01/07 17:02:58;;;;;;;29.08;15.63;;;;;;;;;;4936800;29;20110;-83
2023/01/07 17:05:25;;;;;;;27.17;15.57;;;;;;;;;;4936489;29;20382;-88
2023/01/07 17:08:18;;;;;;;27.77;16.60;;;;;;;;;;4936295;29;20114;-89
2023/01/07 17:10:55;;;;;;;31.52;17.02;;;;;;;;;;4929665;29;20061;-92
2023/01/07 17:13:23;;;;;;;32.67;17.67;;;;;;;;;;4936632;29;20024;-89
2023/01/07 17:15:49;;;;;;;33.80;18.88;;;;;;;;;;4935250;29;20111;-87
2023/01/07 17:18:14;;;;;;;33.33;17.58;;;;;;;;;;4936402;29;20148;-84
2023/01/07 17:20:47;;;;;;;33.30;18.27;;;;;;;;;;4941642;29;20043;-91
2023/01/07 17:23:31;;;;;;;31.38;18.05;;;;;;;;;;4937609;29;20039;-90
2023/01/07 17:26:04;;;;;;;28.70;16.25;;;;;;;;;;4936835;29;20031;-93
2023/01/07 17:28:35;;;;;;;71.03;35.13;;;;;;;;;;4936988;29;20039;-93
2023/01/07 17:31:00;;;;;;;51.78;25.90;;;;;;;;;;4936681;29;20067;-93
2023/01/07 17:33:26;;;;;;;45.92;21.92;;;;;;;;;;4936862;29;20044;-94
2023/01/07 17:35:56;;;;;;;38.53;20.40;;;;;;;;;;4936500;29;20028;-94
2023/01/07 17:38:21;;;;;;;;;;;;;;;;;;4934981;29;20027;-94
2023/01/07 17:40:47;;;;;;;36.15;18.75;;;;;;;;;;4924491;29;19915;-91
2023/01/07 17:43:32;;;;;;;33.10;18.45;;;;;;;;;;4936442;29;20028;-88
2023/01/07 17:46:02;;;;;;;30.95;16.98;;;;;;;;;;4936756;29;20468;-84
2023/01/07 17:48:28;;;;;;;29.98;18.02;;;;;;;;;;4937242;29;20083;-89
2023/01/07 17:50:55;;;;;;;34.53;18.60;;;;;;;;;;4936155;29;20027;-91
2023/01/07 17:53:25;;;;;;;33.88;18.83;;;;;;;;;;4935944;29;20094;-89
2023/01/07 17:55:50;;;;;;;35.10;18.35;;;;;;;;;;4935274;29;20020;-92
2023/01/07 17:58:33;;;;;;;34.58;18.80;;;;;;;;;;4935622;29;20047;-89
2023/01/07 18:01:00;;;;;;;32.20;19.17;;;;;;;;;;4933134;29;20024;-86
2023/01/07 18:03:26;;;;;;;36.55;18.65;;;;;;;;;;4935517;29;20047;-90
2023/01/07 18:05:52;;;;;;;29.13;16.67;;;;;;;;;;4933846;29;20062;-90
2023/01/07 18:08:17;;;;;;;36.08;18.35;;;;;;;;;;4936158;29;20467;-89
2023/01/07 18:13:28;;;;;;;31.92;18.38;;;;;;;;;;4935525;29;20035;-93
2023/01/07 18:15:56;;;;;;;38.08;22.58;;;;;;;;;;4936014;29;20028;-92
2023/01/07 18:18:22;;;;;;;37.67;21.75;;;;;;;;;;4937219;29;20163;-87
2023/01/07 18:20:47;;;;;;;39.03;23.20;;;;;;;;;;4939538;29;20031;-84
2023/01/07 18:23:13;;;;;;;39.20;22.83;;;;;;;;;;4939375;29;20020;-87
2023/01/07 18:25:42;;;;;;;35.47;21.27;;;;;;;;;;4939285;29;20027;-86
2023/01/07 18:28:09;;;;;;;37.03;22.80;;;;;;;;;;4937975;29;20115;-88
2023/01/07 18:30:36;;;;;;;40.00;23.17;;;;;;;;;;4939265;29;20106;-86
2023/01/07 18:33:02;;;;;;;40.75;23.35;;;;;;;;;;4937976;29;20043;-86
2023/01/07 18:35:27;;;;;;;39.70;22.13;;;;;;;;;;4937817;29;20038;-87
2023/01/07 18:37:53;;;;;;;39.47;22.67;;;;;;;;;;4939564;29;20024;-86
2023/01/07 18:40:19;;;;;;;42.40;22.50;;;;;;;;;;4938927;29;20031;-87
2023/01/07 18:42:44;;;;;;;41.80;22.35;;;;;;;;;;4939098;29;20031;-86
2023/01/07 18:45:10;;;;;;;40.67;21.90;;;;;;;;;;4939436;29;20471;-85
2023/01/07 18:47:36;;;;;;;39.92;22.45;;;;;;;;;;4941552;29;20043;-85
2023/01/07 18:50:01;;;;;;;43.42;22.13;;;;;;;;;;4939577;29;20027;-84
2023/01/07 18:52:28;;;;;;;43.03;22.58;;;;;;;;;;4937581;29;20435;-85
2023/01/07 18:54:53;;;;;;;40.30;20.90;;;;;;;;;;4937423;29;20020;-87
2023/01/07 18:57:19;;;;;;;39.47;22.00;;;;;;;;;;4938175;29;20625;-84
2023/01/07 18:59:44;;;;;;;40.72;22.40;;;;;;;;;;4938043;29;20050;-84
2023/01/07 19:02:14;;;;;;;38.15;22.05;;;;;;;;;;4937411;29;20122;-85
2023/01/07 19:04:40;;;;;;;40.63;23.15;;;;;;;;;;4937453;29;20167;-85
2023/01/07 19:07:06;;;;;;;43.15;24.55;;;;;;;;;;4938495;29;20499;-84
2023/01/07 19:09:31;;;;;;;53.08;26.30;;;;;;;;;;4939544;29;20051;-84
2023/01/07 19:11:57;;;;;;;42.55;22.85;;;;;;;;;;4929767;29;20490;-90
2023/01/07 19:14:22;;;;;;;40.10;20.63;;;;;;;;;;4935902;29;20011;-89
2023/01/07 19:16:47;;;;;;;41.53;23.55;;;;;;;;;;4938681;29;20031;-88
2023/01/07 19:19:13;;;;;;;45.97;24.52;;;;;;;;;;4938249;29;20036;-89
2023/01/07 19:21:39;;;;;;;44.75;25.00;;;;;;;;;;4926599;29;20558;-88
2023/01/07 19:24:05;;;;;;;40.33;21.73;;;;;;;;;;4938728;29;20039;-88
2023/01/07 19:26:32;;;;;;;41.63;22.48;;;;;;;;;;4938520;29;20099;-90
2023/01/07 19:28:58;;;;;;;43.97;25.60;;;;;;;;;;4937845;29;20024;-91
2023/01/07 19:31:24;;;;;;;44.50;24.60;;;;;;;;;;4938424;29;20396;-90
2023/01/07 19:33:49;;;;;;;42.78;25.05;;;;;;;;;;4938359;29;20043;-91
2023/01/07 19:36:15;;;;;;;38.90;24.17;;;;;;;;;;4926549;29;20031;-90
2023/01/07 19:38:45;;;;;;;42.33;23.98;;;;;;;;;;4938371;29;20106;-90
2023/01/07 19:41:14;;;;;;;35.45;20.88;;;;;;;;;;4938579;29;20035;-86
2023/01/07 19:43:39;;;;;;;39.53;21.98;;;;;;;;;;4936925;29;20035;-89
2023/01/07 19:46:06;;;;;;;37.83;23.45;;;;;;;;;;4938085;29;20031;-87
2023/01/07 19:48:32;;;;;;;40.50;23.85;;;;;;;;;;4937478;29;20031;-84
2023/01/07 19:51:02;;;;;;;39.85;22.23;;;;;;;;;;4938886;29;20067;-87
2023/01/07 19:53:28;;;;;;;39.95;21.80;;;;;;;;;;4940086;29;20471;-90
2023/01/07 19:56:05;;;;;;;39.25;23.13;;;;;;;;;;4938422;29;20123;-88
2023/01/07 19:58:31;;;;;;;42.15;23.55;;;;;;;;;;4939100;29;20020;-88
2023/01/07 20:01:12;;;;;;;41.55;23.63;;;;;;;;;;4943754;29;20162;-90
2023/01/07 20:03:38;;;;;;;57.85;33.83;;;;;;;;;;4942546;29;20024;-89
2023/01/07 20:06:06;;;;;;;68.18;40.55;;;;;;;;;;4943772;29;20043;-88
2023/01/07 20:08:31;;;;;;;54.20;32.63;;;;;;;;;;4941326;29;20082;-91
2023/01/07 20:10:58;;;;;;;45.03;25.23;;;;;;;;;;4937565;29;20427;-85
2023/01/07 20:13:25;;;;;;;44.00;25.05;;;;;;;;;;4937891;29;20047;-84
2023/01/07 20:15:51;;;;;;;37.35;22.80;;;;;;;;;;4937300;29;20031;-90
2023/01/07 20:18:17;;;;;;;40.40;22.23;;;;;;;;;;4937422;29;20055;-85
2023/01/07 20:20:43;;;;;;;39.53;21.90;;;;;;;;;;4937575;29;20063;-91
2023/01/07 20:23:09;;;;;;;36.08;20.55;;;;;;;;;;4937575;29;20020;-86
2023/01/07 20:25:34;;;;;;;35.78;21.17;;;;;;;;;;4937640;29;20099;-85
2023/01/07 20:28:00;;;;;;;40.05;22.88;;;;;;;;;;4936853;29;20497;-85
2023/01/07 20:30:25;;;;;;;42.17;22.58;;;;;;;;;;4936065;29;20062;-87
2023/01/07 20:32:51;;;;;;;39.38;22.90;;;;;;;;;;4936770;29;20047;-87
2023/01/07 20:35:16;;;;;;;43.53;22.88;;;;;;;;;;4936971;29;20398;-86
2023/01/07 20:37:41;;;;;;;39.80;23.30;;;;;;;;;;4936761;29;20032;-88
2023/01/07 20:40:07;;;;;;;39.20;21.40;;;;;;;;;;4936803;29;20395;-86
2023/01/07 20:42:33;;;;;;;40.10;23.35;;;;;;;;;;4928678;29;20028;-86
2023/01/07 20:44:59;;;;;;;42.97;24.08;;;;;;;;;;4931785;29;20463;-86
2023/01/07 20:47:25;;;;;;;39.45;23.67;;;;;;;;;;4935583;29;20027;-88
2023/01/07 20:49:50;;;;;;;41.63;23.38;;;;;;;;;;4936698;29;20032;-86
2023/01/07 20:52:16;;;;;;;40.40;22.40;;;;;;;;;;4936586;29;20065;-86
2023/01/07 20:54:41;;;;;;;41.20;22.70;;;;;;;;;;4935190;29;20027;-87
2023/01/07 20:57:06;;;;;;;45.10;26.70;;;;;;;;;;4936824;29;20028;-86
2023/01/07 20:59:32;;;;;;;41.30;24.70;;;;;;;;;;4935155;29;20027;-86
2023/01/07 21:01:57;;;;;;;42.60;23.92;;;;;;;;;;4936625;29;20031;-86
2023/01/07 21:04:23;;;;;;;41.45;23.23;;;;;;;;;;4936238;29;20090;-86
2023/01/07 21:06:48;;;;;;;44.28;23.95;;;;;;;;;;4936707;29;20019;-86
2023/01/07 21:09:14;;;;;;;41.38;23.45;;;;;;;;;;4936308;29;20402;-87
2023/01/07 21:11:42;;;;;;;40.40;23.35;;;;;;;;;;4936356;29;20052;-86
2023/01/07 21:14:08;;;;;;;39.10;22.33;;;;;;;;;;4936609;29;20027;-91
2023/01/07 21:16:35;;;;;;;42.33;23.42;;;;;;;;;;4936743;29;20368;-91
2023/01/07 21:19:00;;;;;;;41.65;25.17;;;;;;;;;;4936571;29;20027;-91
2023/01/07 21:21:26;;;;;;;41.83;24.83;;;;;;;;;;4936558;29;20026;-90
2023/01/07 21:23:52;;;;;;;40.67;23.42;;;;;;;;;;4936691;29;20030;-91
2023/01/07 21:26:18;;;;;;;41.88;23.88;;;;;;;;;;4936623;29;20031;-90
2023/01/07 21:28:44;;;;;;;42.50;24.40;;;;;;;;;;4936453;29;20489;-91
2023/01/07 21:31:12;;;;;;;45.42;25.00;;;;;;;;;;4936631;29;20019;-87
2023/01/07 21:33:39;;;;;;;41.45;23.85;;;;;;;;;;4936579;29;20491;-90
2023/01/07 21:36:08;;;;;;;44.60;25.60;;;;;;;;;;4936673;29;20430;-90
2023/01/07 21:38:34;;;;;;;46.03;24.88;;;;;;;;;;4936277;29;20038;-89
2023/01/07 21:41:04;;;;;;;41.05;25.02;;;;;;;;;;4936573;29;20035;-90
2023/01/07 21:43:29;;;;;;;43.63;25.23;;;;;;;;;;4936416;29;20546;-91
2023/01/07 21:45:58;;;;;;;45.72;26.05;;;;;;;;;;4936516;29;20061;-90
2023/01/07 21:48:24;;;;;;;50.83;29.50;;;;;;;;;;4936071;29;20067;-91
2023/01/07 21:50:49;;;;;;;45.38;25.23;;;;;;;;;;4936453;29;20070;-90
2023/01/07 21:53:15;;;;;;;48.05;26.48;;;;;;;;;;4938245;29;20031;-90
2023/01/07 21:55:40;;;;;;;44.60;24.02;;;;;;;;;;4940120;29;20027;-90
2023/01/07 21:58:05;;;;;;;40.33;23.92;;;;;;;;;;4939985;29;20042;-89
2023/01/07 22:00:31;;;;;;;47.60;26.27;;;;;;;;;;4940655;29;20038;-88
2023/01/07 22:02:56;;;;;;;43.78;23.20;;;;;;;;;;4940281;29;20066;-87
2023/01/07 22:05:22;;;;;;;37.80;22.23;;;;;;;;;;4939797;29;20028;-85
2023/01/07 22:07:47;;;;;;;35.78;21.02;;;;;;;;;;4939675;29;20422;-86
2023/01/07 22:10:13;;;;;;;37.83;22.23;;;;;;;;;;4939676;29;20142;-90
2023/01/07 22:12:38;;;;;;;36.92;23.88;;;;;;;;;;4939784;29;20028;-89
2023/01/07 22:15:04;;;;;;;38.17;22.17;;;;;;;;;;4939709;29;20101;-86
2023/01/07 22:17:29;;;;;;;37.00;23.05;;;;;;;;;;4939599;29;20071;-85
2023/01/07 22:19:55;;;;;;;40.40;22.52;;;;;;;;;;4939870;29;20028;-89
2023/01/07 22:22:20;;;;;;;35.38;20.08;;;;;;;;;;4939253;29;20471;-90
2023/01/07 22:24:46;;;;;;;36.03;20.35;;;;;;;;;;4939574;29;20034;-91
2023/01/07 22:27:11;;;;;;;29.88;18.08;;;;;;;;;;4939567;29;20038;-91
2023/01/07 22:29:37;;;;;;;29.00;17.58;;;;;;;;;;4939403;29;20054;-85
2023/01/07 22:32:02;;;;;;;32.05;19.20;;;;;;;;;;4939218;29;20056;-89
2023/01/07 22:34:28;;;;;;;31.60;18.67;;;;;;;;;;4939427;29;20045;-90
2023/01/07 22:37:03;;;;;;;32.40;18.42;;;;;;;;;;4939568;29;20122;-90
2023/01/07 22:39:33;;;;;;;32.20;18.17;;;;;;;;;;4938125;29;20028;-90
2023/01/07 22:42:04;;;;;;;32.55;18.75;;;;;;;;;;4939367;29;20083;-89
2023/01/07 22:44:37;;;;;;;33.25;19.20;;;;;;;;;;4939150;29;20032;-85
2023/01/07 22:47:06;;;;;;;33.50;18.30;;;;;;;;;;4938345;29;20108;-85
2023/01/07 22:49:32;;;;;;;30.98;17.27;;;;;;;;;;4938846;29;20042;-88
